Airfield :
LOGIN :

Register | Disclaimer

   EN    FR    IT 

 










Legend :    VFR   Marginal VFR   IFR   Intensive IFR   Very Intensive IFR
Visi :
Ceiling :
>= 8 km
>= 3000ft
5 to 8 km
1000 to 3000 ft
1500m to 5 km
500 to 1000 ft
800 to 1500m
200 to 500 ft
< 800m
< 200 ft
Symbols :   Thunderstorms  Fog  Heavy snow  Heavy precipitations  Wind > 20 kt
SIGMETs :     Misc.  Thunderstorms  Icing  Turbulence  Mountain Waves  Volcanic Ashes






- Airport Elevation : 659 ft
- IATA code : LGG


EBLG - Liège

CURRENT METAR :
  • 191520Z 25011KT 9999 FEW035 06/M00 Q1022 NOSIG

EXPIRED METARs :
  • 191450Z 26013KT 9999 SCT036 06/M00 Q1022 NOSIG
  • 191420Z 26016KT 9999 FEW036 06/M01 Q1022 NOSIG
  • 191350Z 26015KT 9999 FEW032 06/M01 Q1022 NOSIG
  • 191320Z 26015KT 9999 FEW034 06/00 Q1022 NOSIG
  • 191250Z 26015KT 9999 SCT031 07/00 Q1022 NOSIG

TAF TAF EBLG
Valid from the 19 at 12:00 until the 20 at 18:00 UTC


191102Z 1912/2018 25012KT 9999 SCT020
TEMPO 1919/2002 4500 RA BKN013
PROB40
TEMPO 1921/2002 3400 RADZ BKN009
PROB40
TEMPO 2002/2009 4500 -DZ BKN009
BECMG 2010/2012 22015G25KT
TEMPO 2017/2018 22020G35KT 4000 RA SHRA



MET'MAP, your aeronautical weather chart ! - Copyright ORBIFLY December 2007 - Disclaimer

ORBIFLY MET'MAP TEAM :

Programming & Development : Alexandra Zaïnal
Concept & original design : Baudouin d'Aumeries
Assistance for programming : Marc-Olivier Méhu
Technical & hardware support : Manuel Goepfert

Contact : metmap@orbifly.com




SOURCES & CREDITS :

   NOAA